Have a Safe July 4th! 

Flight Track Log - Related Links

Times and Time Zones

All times are in EDT time to prevent confusion due to time zone crossing. See the ASQ4925 flight status page for this flight to view local times or setup timezone preferences in your user account.

Time Position Orientation Groundspeed Altitude Reporting Facility
EDT Latitude Longitude Course Direction KTS MPH feet Rate Location/Type
Tue 10:36:24 AM 33.6500 -84.4667 296° West 174 200 2,800  Level Atlanta TRACON
Tue 10:37:24 AM 33.6833 -84.5500 296° West 243 280 4,700 2,333 Climbing Atlanta TRACON
Tue 10:38:30 AM 33.7500 -84.5833 337° Northwest 298 343 7,700 2,476 Climbing Atlanta TRACON
Tue 10:39:30 AM 33.8333 -84.5833 360° North 302 348 9,900 1,645 Climbing Atlanta TRACON
Tue 10:40:34 AM 33.9267 -84.5944 354° North 338 389 11,100 1,355 Climbing Atlanta Center
Tue 10:41:34 AM 34.0308 -84.6303 344° North 344 396 12,700 1,800 Climbing Atlanta Center
Tue 10:42:34 AM 34.1308 -84.6661 343° North 365 420 14,700 1,800 Climbing Atlanta Center
Tue 10:43:34 AM 34.2286 -84.7019 343° North 365 420 16,300 1,450 Climbing Atlanta Center
Tue 10:44:34 AM 34.3286 -84.7431 341° North 365 420 17,600 1,300 Climbing Atlanta Center
Tue 10:45:34 AM 34.4306 -84.7892 340° North 371 427 18,900 1,150 Climbing Atlanta Center
Tue 10:46:34 AM 34.5367 -84.8356 340° North 382 440 19,900 1,000 Climbing Atlanta Center
Tue 10:47:34 AM 34.6450 -84.8794 342° North 405 466 20,900 900 Climbing Atlanta Center
Tue 10:48:34 AM 34.7386 -84.9286 337° Northwest 410 472 21,700 900 Climbing Atlanta Center
Tue 10:49:34 AM 34.8508 -84.9778 340° North 410 472 22,700 950 Climbing Atlanta Center
Tue 10:50:34 AM 34.9611 -85.0272 340° North 410 472 23,600 650 Climbing Atlanta Center
Tue 10:51:34 AM 35.0775 -85.0794 340° North 423 487 24,000 500 Climbing Atlanta Center
Tue 10:52:34 AM 35.1644 -85.1642 321° Northwest 413 475 24,600 600 Climbing Atlanta Center
Tue 10:53:34 AM 35.2281 -85.2694 307° West 393 452 25,200 846 Climbing Atlanta Center
Tue 10:55:03 AM 35.3369 -85.4356 309° West 393 452 26,700 914 Climbing Memphis Center
Tue 10:56:05 AM 35.4056 -85.5408 309° West 393 452 27,500 677 Climbing Memphis Center
Tue 10:57:07 AM 35.4733 -85.6478 308° West 393 452 28,100 629 Climbing Memphis Center
Tue 10:58:09 AM 35.5439 -85.7556 309° West 397 457 28,800 629 Climbing Memphis Center
Tue 10:59:11 AM 35.6144 -85.8642 309° West 398 458 29,400 581 Climbing Memphis Center
Tue 11:00:13 AM 35.6839 -85.9725 308° West 398 458 30,000 290 Climbing Memphis Center
Tue 11:01:15 AM 35.7528 -86.0811 308° West 398 458 30,000  Level Memphis Center
Tue 11:02:17 AM 35.8347 -86.2075 309° West 399 459 30,000  Level Memphis Center
Tue 11:03:19 AM 35.9028 -86.3147 308° West 398 458 30,000  Level Memphis Center
Tue 11:04:21 AM 35.9697 -86.4203 308° West 394 453 30,000  Level Memphis Center
Tue 11:05:23 AM 36.0364 -86.5272 308° West 390 449 30,000  Level Memphis Center
Tue 11:06:25 AM 36.1047 -86.6339 308° West 390 449 30,000  Level Memphis Center
Tue 11:07:27 AM 36.1947 -86.7217 322° Northwest 418 481 30,000  Level Memphis Center
Tue 11:08:30 AM 36.3003 -86.7892 333° Northwest 436 502 30,000  Level Memphis Center
Tue 11:09:32 AM 36.4264 -86.8692 333° Northwest 438 504 30,000  Level Memphis Center
Tue 11:10:34 AM 36.5364 -86.9394 333° Northwest 439 505 30,000  Level Memphis Center
Tue 11:11:36 AM 36.6458 -87.0106 332° Northwest 439 505 30,000  Level Memphis Center
Tue 11:12:38 AM 36.7556 -87.0822 332° Northwest 439 505 30,000  Level Memphis Center
Tue 11:13:40 AM 36.8842 -87.1664 332° Northwest 441 507 30,000  Level Memphis Center
Tue 11:15:19 AM 37.0483 -87.2736 332° Northwest 441 507 30,000  Level Indianapolis Center
Tue 11:16:20 AM 37.1567 -87.3436 333° Northwest 439 505 30,000  Level Indianapolis Center
Tue 11:17:22 AM 37.2636 -87.4150 332° Northwest 435 501 30,000  Level Indianapolis Center
Tue 11:18:24 AM 37.3878 -87.4969 332° Northwest 433 498 30,000  Level Indianapolis Center
Tue 11:19:25 AM 37.4933 -87.5656 333° Northwest 428 493 30,000  Level Indianapolis Center
Tue 11:20:27 AM 37.5978 -87.6364 332° Northwest 426 490 30,000  Level Indianapolis Center
Tue 11:21:29 AM 37.7008 -87.7044 332° Northwest 416 479 30,000  Level Indianapolis Center
Tue 11:22:30 AM 37.7989 -87.7708 332° Northwest 412 474 30,000  Level Indianapolis Center
Tue 11:23:32 AM 37.8997 -87.8367 333° Northwest 409 471 30,000  Level Indianapolis Center
Tue 11:24:33 AM 38.0008 -87.9047 332° Northwest 409 471 30,000  Level Indianapolis Center
Tue 11:25:35 AM 38.1006 -87.9731 332° Northwest 407 468 30,000  Level Indianapolis Center
Tue 11:26:36 AM 38.1989 -88.0397 332° Northwest 401 461 30,000  Level Indianapolis Center
Tue 11:27:38 AM 38.2969 -88.1056 332° Northwest 400 460 30,000  Level Indianapolis Center
Tue 11:28:14 AM 38.3550 -88.1456 332° Northwest 396 456 30,000  Level Kansas City Center
Tue 11:29:16 AM 38.4522 -88.2108 332° Northwest 395 455 30,000  Level Kansas City Center
Tue 11:30:18 AM 38.5639 -88.2881 332° Northwest 384 442 30,000  Level Kansas City Center
Tue 11:31:20 AM 38.6567 -88.3519 332° Northwest 380 437 30,000  Level Kansas City Center
Tue 11:32:22 AM 38.7475 -88.4147 332° Northwest 376 433 30,000  Level Kansas City Center
Tue 11:33:24 AM 38.8381 -88.4772 332° Northwest 371 427 30,000 -145 Level Kansas City Center
Tue 11:34:26 AM 38.9275 -88.5378 332° Northwest 365 420 29,700 -435 Descending Kansas City Center
Tue 11:35:28 AM 39.0169 -88.5997 332° Northwest 362 417 29,100 -726 Descending Kansas City Center
Tue 11:36:30 AM 39.1094 -88.6653 331° Northwest 362 417 28,200 -871 Descending Kansas City Center
Tue 11:37:32 AM 39.1983 -88.7278 331° Northwest 362 417 27,300 -871 Descending Kansas City Center
Tue 11:38:34 AM 39.2869 -88.7892 332° Northwest 362 417 26,400 -968 Descending Kansas City Center
Tue 11:39:36 AM 39.3928 -88.8619 332° Northwest 362 417 25,300 -919 Descending Kansas City Center
Tue 11:40:38 AM 39.4703 -88.9189 330° Northwest 363 418 24,500 -912 Descending Kansas City Center
Tue 11:41:41 AM 39.5744 -88.9917 332° Northwest 361 415 23,400 -1,248 Descending Kansas City Center
Tue 11:42:43 AM 39.6614 -89.0542 331° Northwest 359 413 21,900 -1,742 Descending Kansas City Center
Tue 11:43:45 AM 39.7503 -89.1161 332° Northwest 360 414 19,800 -1,984 Descending Kansas City Center
Tue 11:44:47 AM 39.8372 -89.1783 331° Northwest 360 414 17,800 -1,790 Descending Kansas City Center
Tue 11:45:49 AM 39.9233 -89.2403 331° Northwest 358 412 16,100 -1,790 Descending Kansas City Center
Tue 11:46:51 AM 40.0078 -89.3006 331° Northwest 352 405 14,100 -1,984 Descending Kansas City Center
Tue 11:47:53 AM 40.1047 -89.3711 331° Northwest 337 388 12,000 -1,645 Descending Kansas City Center
Tue 11:48:55 AM 40.1847 -89.4100 340° North 315 362 10,700 -1,258 Descending Kansas City Center
Tue 11:49:57 AM 40.2561 -89.4322 347° North 274 315 9,400 -1,500 Descending Kansas City Center
Tue 11:50:59 AM 40.3203 -89.4525 346° North 245 282 7,600 -1,645 Descending Kansas City Center
Tue 11:52:01 AM 40.3839 -89.4747 345° North 243 280 6,000 -1,548 Descending Kansas City Center
Tue 11:53:03 AM 40.4475 -89.4989 344° North 241 277 4,400 -1,403 Descending Kansas City Center
Tue 11:54:05 AM 40.5242 -89.5328 341° North 241 277 3,100 -871 Descending Kansas City Center
Tue 11:55:07 AM 40.5758 -89.5667 334° Northwest 221 254 2,600 -290 Descending Kansas City Center
Tue 11:56:09 AM 40.6125 -89.6050 322° Northwest 186 214 2,500 -528 Descending Kansas City Center
Tue 11:57:12 AM 40.6356 -89.6461 306° West 157 181 1,500 -816 Descending Kansas City Center
Tue 11:58:14 AM 40.6569 -89.6847 306° West 141 162 800 -677 Descending Kansas City Center
Tue 12:00:00 PM 40.6500 -89.6833 108° East  Level FlightAware Approximate

Login

Don't have an account? Register now (free) for customized features, flight alerts, and more!